sensor_id;sensor_type;location;lat;lon;timestamp;P1;durP1;ratioP1;P2;durP2;ratioP2
72388;SDS011;60566;48.062;9.930;2022-09-09T00:00:19;7.03;;;1.83;;
72388;SDS011;60566;48.062;9.930;2022-09-09T00:02:47;5.43;;;1.70;;
72388;SDS011;60566;48.062;9.930;2022-09-09T00:05:19;6.95;;;1.95;;
72388;SDS011;60566;48.062;9.930;2022-09-09T00:07:51;6.97;;;2.05;;
72388;SDS011;60566;48.062;9.930;2022-09-09T00:10:19;4.05;;;1.80;;
72388;SDS011;60566;48.062;9.930;2022-09-09T00:12:51;6.38;;;1.90;;
72388;SDS011;60566;48.062;9.930;2022-09-09T00:15:20;4.68;;;2.25;;
72388;SDS011;60566;48.062;9.930;2022-09-09T00:17:49;5.88;;;1.98;;
72388;SDS011;60566;48.062;9.930;2022-09-09T00:20:19;6.53;;;2.35;;
72388;SDS011;60566;48.062;9.930;2022-09-09T00:22:47;6.03;;;2.00;;
72388;SDS011;60566;48.062;9.930;2022-09-09T00:25:19;6.43;;;2.20;;
72388;SDS011;60566;48.062;9.930;2022-09-09T00:27:48;4.47;;;1.65;;
72388;SDS011;60566;48.062;9.930;2022-09-09T00:30:15;6.75;;;2.30;;
72388;SDS011;60566;48.062;9.930;2022-09-09T00:32:42;7.15;;;2.40;;
72388;SDS011;60566;48.062;9.930;2022-09-09T00:35:13;4.07;;;2.20;;
72388;SDS011;60566;48.062;9.930;2022-09-09T00:37:41;7.00;;;2.60;;
72388;SDS011;60566;48.062;9.930;2022-09-09T00:40:13;10.93;;;2.25;;
72388;SDS011;60566;48.062;9.930;2022-09-09T00:42:44;3.95;;;1.83;;
72388;SDS011;60566;48.062;9.930;2022-09-09T00:45:15;5.18;;;2.22;;
72388;SDS011;60566;48.062;9.930;2022-09-09T00:47:58;7.47;;;3.20;;
72388;SDS011;60566;48.062;9.930;2022-09-09T00:50:33;7.00;;;2.20;;
72388;SDS011;60566;48.062;9.930;2022-09-09T00:53:05;8.27;;;2.63;;
72388;SDS011;60566;48.062;9.930;2022-09-09T00:55:45;8.30;;;2.58;;
72388;SDS011;60566;48.062;9.930;2022-09-09T00:58:13;5.80;;;2.30;;
72388;SDS011;60566;48.062;9.930;2022-09-09T01:00:40;4.15;;;2.13;;
72388;SDS011;60566;48.062;9.930;2022-09-09T01:03:11;6.97;;;2.58;;
72388;SDS011;60566;48.062;9.930;2022-09-09T01:05:44;6.05;;;2.90;;
72388;SDS011;60566;48.062;9.930;2022-09-09T01:08:14;5.75;;;2.40;;
72388;SDS011;60566;48.062;9.930;2022-09-09T01:10:52;5.75;;;2.25;;
72388;SDS011;60566;48.062;9.930;2022-09-09T01:13:20;7.05;;;2.50;;
72388;SDS011;60566;48.062;9.930;2022-09-09T01:15:47;5.28;;;2.15;;
72388;SDS011;60566;48.062;9.930;2022-09-09T01:18:14;4.78;;;1.95;;
72388;SDS011;60566;48.062;9.930;2022-09-09T01:20:44;7.60;;;2.40;;
72388;SDS011;60566;48.062;9.930;2022-09-09T01:23:18;5.15;;;2.45;;
72388;SDS011;60566;48.062;9.930;2022-09-09T01:28:47;5.10;;;2.20;;
72388;SDS011;60566;48.062;9.930;2022-09-09T01:31:14;5.28;;;2.05;;
72388;SDS011;60566;48.062;9.930;2022-09-09T01:33:42;5.25;;;2.30;;
72388;SDS011;60566;48.062;9.930;2022-09-09T01:36:08;4.07;;;2.63;;
72388;SDS011;60566;48.062;9.930;2022-09-09T01:38:36;5.22;;;2.50;;
72388;SDS011;60566;48.062;9.930;2022-09-09T01:41:01;7.55;;;2.28;;
72388;SDS011;60566;48.062;9.930;2022-09-09T01:43:28;12.60;;;2.70;;
72388;SDS011;60566;48.062;9.930;2022-09-09T01:45:54;4.22;;;2.15;;
72388;SDS011;60566;48.062;9.930;2022-09-09T01:48:21;5.53;;;2.20;;
72388;SDS011;60566;48.062;9.930;2022-09-09T01:50:48;4.43;;;2.40;;
72388;SDS011;60566;48.062;9.930;2022-09-09T01:53:13;4.57;;;2.20;;
72388;SDS011;60566;48.062;9.930;2022-09-09T01:55:40;3.30;;;2.20;;
72388;SDS011;60566;48.062;9.930;2022-09-09T01:58:11;4.85;;;2.15;;
72388;SDS011;60566;48.062;9.930;2022-09-09T02:00:46;5.82;;;2.15;;
72388;SDS011;60566;48.062;9.930;2022-09-09T02:03:17;5.10;;;2.20;;
72388;SDS011;60566;48.062;9.930;2022-09-09T02:05:47;6.03;;;2.35;;
72388;SDS011;60566;48.062;9.930;2022-09-09T02:08:15;4.13;;;2.40;;
72388;SDS011;60566;48.062;9.930;2022-09-09T02:10:45;4.25;;;2.33;;
72388;SDS011;60566;48.062;9.930;2022-09-09T02:13:12;5.53;;;2.42;;
72388;SDS011;60566;48.062;9.930;2022-09-09T02:15:40;3.95;;;2.17;;
72388;SDS011;60566;48.062;9.930;2022-09-09T02:18:10;4.10;;;2.22;;
72388;SDS011;60566;48.062;9.930;2022-09-09T02:20:38;8.32;;;2.97;;
72388;SDS011;60566;48.062;9.930;2022-09-09T02:23:04;4.30;;;2.67;;
72388;SDS011;60566;48.062;9.930;2022-09-09T02:25:31;5.55;;;2.22;;
72388;SDS011;60566;48.062;9.930;2022-09-09T02:27:58;5.32;;;2.45;;
72388;SDS011;60566;48.062;9.930;2022-09-09T02:30:24;3.92;;;2.30;;
72388;SDS011;60566;48.062;9.930;2022-09-09T02:32:51;5.97;;;2.33;;
72388;SDS011;60566;48.062;9.930;2022-09-09T02:35:19;6.80;;;2.40;;
72388;SDS011;60566;48.062;9.930;2022-09-09T02:37:46;5.38;;;2.30;;
72388;SDS011;60566;48.062;9.930;2022-09-09T02:40:12;5.35;;;2.65;;
72388;SDS011;60566;48.062;9.930;2022-09-09T02:42:38;5.35;;;2.58;;
72388;SDS011;60566;48.062;9.930;2022-09-09T02:45:05;3.85;;;2.15;;
72388;SDS011;60566;48.062;9.930;2022-09-09T02:47:33;4.47;;;2.25;;
72388;SDS011;60566;48.062;9.930;2022-09-09T02:50:10;5.55;;;2.63;;
72388;SDS011;60566;48.062;9.930;2022-09-09T02:52:40;5.07;;;2.40;;
72388;SDS011;60566;48.062;9.930;2022-09-09T02:55:11;9.00;;;2.35;;
72388;SDS011;60566;48.062;9.930;2022-09-09T02:57:42;4.03;;;2.45;;
72388;SDS011;60566;48.062;9.930;2022-09-09T03:00:08;3.70;;;2.30;;
72388;SDS011;60566;48.062;9.930;2022-09-09T03:02:34;7.30;;;2.95;;
72388;SDS011;60566;48.062;9.930;2022-09-09T03:04:59;5.88;;;2.63;;
72388;SDS011;60566;48.062;9.930;2022-09-09T03:07:26;4.25;;;2.33;;
72388;SDS011;60566;48.062;9.930;2022-09-09T03:09:52;3.78;;;2.30;;
72388;SDS011;60566;48.062;9.930;2022-09-09T03:12:17;4.25;;;2.45;;
72388;SDS011;60566;48.062;9.930;2022-09-09T03:14:43;5.03;;;2.30;;
72388;SDS011;60566;48.062;9.930;2022-09-09T03:17:08;7.47;;;2.50;;
72388;SDS011;60566;48.062;9.930;2022-09-09T03:19:33;5.43;;;2.65;;
72388;SDS011;60566;48.062;9.930;2022-09-09T03:21:59;4.78;;;2.35;;
72388;SDS011;60566;48.062;9.930;2022-09-09T03:24:26;5.05;;;2.45;;
72388;SDS011;60566;48.062;9.930;2022-09-09T03:26:51;5.60;;;2.13;;
72388;SDS011;60566;48.062;9.930;2022-09-09T03:29:17;3.88;;;2.60;;
72388;SDS011;60566;48.062;9.930;2022-09-09T03:31:43;5.43;;;2.47;;
72388;SDS011;60566;48.062;9.930;2022-09-09T03:34:08;5.00;;;2.00;;
72388;SDS011;60566;48.062;9.930;2022-09-09T03:36:34;4.07;;;2.22;;
72388;SDS011;60566;48.062;9.930;2022-09-09T03:38:59;5.35;;;2.40;;
72388;SDS011;60566;48.062;9.930;2022-09-09T03:41:26;3.90;;;2.00;;
72388;SDS011;60566;48.062;9.930;2022-09-09T03:43:52;3.97;;;2.45;;
72388;SDS011;60566;48.062;9.930;2022-09-09T03:46:17;6.35;;;2.63;;
72388;SDS011;60566;48.062;9.930;2022-09-09T03:48:43;3.60;;;1.98;;
72388;SDS011;60566;48.062;9.930;2022-09-09T03:51:08;5.95;;;2.47;;
72388;SDS011;60566;48.062;9.930;2022-09-09T03:53:34;5.47;;;1.98;;
72388;SDS011;60566;48.062;9.930;2022-09-09T03:55:59;5.28;;;2.25;;
72388;SDS011;60566;48.062;9.930;2022-09-09T03:58:26;4.40;;;2.03;;
72388;SDS011;60566;48.062;9.930;2022-09-09T04:00:53;6.85;;;2.35;;
72388;SDS011;60566;48.062;9.930;2022-09-09T04:03:19;6.15;;;2.50;;
72388;SDS011;60566;48.062;9.930;2022-09-09T04:05:44;6.07;;;2.33;;
72388;SDS011;60566;48.062;9.930;2022-09-09T04:08:10;5.18;;;2.53;;
72388;SDS011;60566;48.062;9.930;2022-09-09T04:10:35;5.82;;;2.50;;
72388;SDS011;60566;48.062;9.930;2022-09-09T04:13:01;5.18;;;2.63;;
72388;SDS011;60566;48.062;9.930;2022-09-09T04:15:27;5.38;;;2.55;;
72388;SDS011;60566;48.062;9.930;2022-09-09T04:17:53;5.50;;;2.60;;
72388;SDS011;60566;48.062;9.930;2022-09-09T04:20:18;5.35;;;2.75;;
72388;SDS011;60566;48.062;9.930;2022-09-09T04:22:43;5.53;;;2.75;;
72388;SDS011;60566;48.062;9.930;2022-09-09T04:25:09;7.07;;;2.58;;
72388;SDS011;60566;48.062;9.930;2022-09-09T04:27:34;4.32;;;2.70;;
72388;SDS011;60566;48.062;9.930;2022-09-09T04:30:00;4.97;;;2.60;;
72388;SDS011;60566;48.062;9.930;2022-09-09T04:32:26;6.03;;;2.92;;
72388;SDS011;60566;48.062;9.930;2022-09-09T04:34:52;7.35;;;2.67;;
72388;SDS011;60566;48.062;9.930;2022-09-09T04:37:17;6.30;;;2.80;;
72388;SDS011;60566;48.062;9.930;2022-09-09T04:39:42;4.50;;;2.67;;
72388;SDS011;60566;48.062;9.930;2022-09-09T04:42:08;7.03;;;3.17;;
72388;SDS011;60566;48.062;9.930;2022-09-09T04:44:33;6.13;;;3.17;;
72388;SDS011;60566;48.062;9.930;2022-09-09T04:46:59;6.97;;;2.97;;
72388;SDS011;60566;48.062;9.930;2022-09-09T04:49:25;5.82;;;3.00;;
72388;SDS011;60566;48.062;9.930;2022-09-09T04:51:51;8.30;;;3.10;;
72388;SDS011;60566;48.062;9.930;2022-09-09T04:54:16;11.05;;;4.28;;
72388;SDS011;60566;48.062;9.930;2022-09-09T04:56:41;6.78;;;3.20;;
72388;SDS011;60566;48.062;9.930;2022-09-09T04:59:07;7.57;;;3.25;;
72388;SDS011;60566;48.062;9.930;2022-09-09T05:01:32;13.18;;;3.55;;
72388;SDS011;60566;48.062;9.930;2022-09-09T05:03:58;7.55;;;3.40;;
72388;SDS011;60566;48.062;9.930;2022-09-09T05:06:24;7.25;;;3.17;;
72388;SDS011;60566;48.062;9.930;2022-09-09T05:08:50;7.40;;;3.40;;
72388;SDS011;60566;48.062;9.930;2022-09-09T05:11:16;6.28;;;2.83;;
72388;SDS011;60566;48.062;9.930;2022-09-09T05:13:42;5.55;;;3.38;;
72388;SDS011;60566;48.062;9.930;2022-09-09T05:16:07;6.50;;;3.20;;
72388;SDS011;60566;48.062;9.930;2022-09-09T05:18:33;5.95;;;2.70;;
72388;SDS011;60566;48.062;9.930;2022-09-09T05:20:58;6.35;;;3.00;;
72388;SDS011;60566;48.062;9.930;2022-09-09T05:23:25;4.93;;;3.15;;
72388;SDS011;60566;48.062;9.930;2022-09-09T05:25:57;5.88;;;2.92;;
72388;SDS011;60566;48.062;9.930;2022-09-09T05:28:23;7.82;;;3.25;;
72388;SDS011;60566;48.062;9.930;2022-09-09T05:30:54;4.65;;;3.00;;
72388;SDS011;60566;48.062;9.930;2022-09-09T05:33:20;5.38;;;2.55;;
72388;SDS011;60566;48.062;9.930;2022-09-09T05:35:46;7.07;;;2.90;;
72388;SDS011;60566;48.062;9.930;2022-09-09T05:38:11;6.20;;;3.08;;
72388;SDS011;60566;48.062;9.930;2022-09-09T05:40:38;5.13;;;3.08;;
72388;SDS011;60566;48.062;9.930;2022-09-09T05:43:03;7.35;;;2.95;;
72388;SDS011;60566;48.062;9.930;2022-09-09T05:45:29;6.60;;;3.33;;
72388;SDS011;60566;48.062;9.930;2022-09-09T05:47:54;7.15;;;3.17;;
72388;SDS011;60566;48.062;9.930;2022-09-09T05:50:20;5.47;;;2.80;;
72388;SDS011;60566;48.062;9.930;2022-09-09T05:52:45;5.82;;;2.40;;
72388;SDS011;60566;48.062;9.930;2022-09-09T05:55:10;4.78;;;2.65;;
72388;SDS011;60566;48.062;9.930;2022-09-09T05:57:37;8.05;;;3.30;;
72388;SDS011;60566;48.062;9.930;2022-09-09T06:00:03;5.18;;;2.95;;
72388;SDS011;60566;48.062;9.930;2022-09-09T06:02:29;8.88;;;2.80;;
72388;SDS011;60566;48.062;9.930;2022-09-09T06:04:54;5.22;;;2.53;;
72388;SDS011;60566;48.062;9.930;2022-09-09T06:07:19;4.20;;;2.17;;
72388;SDS011;60566;48.062;9.930;2022-09-09T06:09:45;5.95;;;2.50;;
72388;SDS011;60566;48.062;9.930;2022-09-09T06:12:10;5.80;;;1.98;;
72388;SDS011;60566;48.062;9.930;2022-09-09T06:14:37;6.63;;;2.10;;
72388;SDS011;60566;48.062;9.930;2022-09-09T06:17:02;3.90;;;1.85;;
72388;SDS011;60566;48.062;9.930;2022-09-09T06:19:28;3.92;;;1.85;;
72388;SDS011;60566;48.062;9.930;2022-09-09T06:21:53;4.95;;;2.10;;
72388;SDS011;60566;48.062;9.930;2022-09-09T06:24:19;4.97;;;1.73;;
72388;SDS011;60566;48.062;9.930;2022-09-09T06:26:44;4.30;;;1.42;;
72388;SDS011;60566;48.062;9.930;2022-09-09T06:29:12;4.35;;;1.60;;
72388;SDS011;60566;48.062;9.930;2022-09-09T06:31:39;3.63;;;1.63;;
72388;SDS011;60566;48.062;9.930;2022-09-09T06:34:05;3.20;;;1.23;;
72388;SDS011;60566;48.062;9.930;2022-09-09T06:36:32;4.32;;;1.70;;
72388;SDS011;60566;48.062;9.930;2022-09-09T06:38:58;3.75;;;1.58;;
72388;SDS011;60566;48.062;9.930;2022-09-09T06:41:25;4.63;;;1.50;;
72388;SDS011;60566;48.062;9.930;2022-09-09T06:43:51;4.25;;;1.58;;
72388;SDS011;60566;48.062;9.930;2022-09-09T06:46:17;3.72;;;1.52;;
72388;SDS011;60566;48.062;9.930;2022-09-09T06:48:45;3.72;;;1.48;;
72388;SDS011;60566;48.062;9.930;2022-09-09T06:51:11;4.35;;;1.50;;
72388;SDS011;60566;48.062;9.930;2022-09-09T06:53:38;4.95;;;1.73;;
72388;SDS011;60566;48.062;9.930;2022-09-09T06:56:17;3.13;;;1.20;;
72388;SDS011;60566;48.062;9.930;2022-09-09T06:58:43;4.32;;;1.80;;
72388;SDS011;60566;48.062;9.930;2022-09-09T07:01:10;3.10;;;1.58;;
72388;SDS011;60566;48.062;9.930;2022-09-09T07:03:37;4.88;;;1.70;;
72388;SDS011;60566;48.062;9.930;2022-09-09T07:06:04;4.50;;;1.60;;
72388;SDS011;60566;48.062;9.930;2022-09-09T07:08:30;3.13;;;1.52;;
72388;SDS011;60566;48.062;9.930;2022-09-09T07:11:01;5.25;;;1.88;;
72388;SDS011;60566;48.062;9.930;2022-09-09T07:13:28;3.95;;;1.85;;
72388;SDS011;60566;48.062;9.930;2022-09-09T07:15:54;4.68;;;1.80;;
72388;SDS011;60566;48.062;9.930;2022-09-09T07:18:19;4.97;;;1.80;;
72388;SDS011;60566;48.062;9.930;2022-09-09T07:20:52;4.05;;;1.80;;
72388;SDS011;60566;48.062;9.930;2022-09-09T07:23:19;3.97;;;1.45;;
72388;SDS011;60566;48.062;9.930;2022-09-09T07:25:45;3.60;;;1.70;;
72388;SDS011;60566;48.062;9.930;2022-09-09T07:28:10;3.90;;;1.60;;
72388;SDS011;60566;48.062;9.930;2022-09-09T07:30:36;3.50;;;1.83;;
72388;SDS011;60566;48.062;9.930;2022-09-09T07:33:03;5.60;;;1.60;;
72388;SDS011;60566;48.062;9.930;2022-09-09T07:35:28;4.60;;;1.80;;
72388;SDS011;60566;48.062;9.930;2022-09-09T07:37:54;4.00;;;1.77;;
72388;SDS011;60566;48.062;9.930;2022-09-09T07:40:21;4.93;;;1.60;;
72388;SDS011;60566;48.062;9.930;2022-09-09T07:42:46;6.32;;;1.35;;
72388;SDS011;60566;48.062;9.930;2022-09-09T07:45:11;4.60;;;1.85;;
72388;SDS011;60566;48.062;9.930;2022-09-09T07:47:37;4.93;;;1.63;;
72388;SDS011;60566;48.062;9.930;2022-09-09T07:50:03;3.65;;;1.55;;
72388;SDS011;60566;48.062;9.930;2022-09-09T07:52:29;3.50;;;1.63;;
72388;SDS011;60566;48.062;9.930;2022-09-09T07:54:54;5.63;;;1.80;;
72388;SDS011;60566;48.062;9.930;2022-09-09T07:57:21;4.53;;;1.60;;
72388;SDS011;60566;48.062;9.930;2022-09-09T07:59:47;3.47;;;1.73;;
72388;SDS011;60566;48.062;9.930;2022-09-09T08:02:17;5.47;;;1.45;;
72388;SDS011;60566;48.062;9.930;2022-09-09T08:04:45;2.85;;;1.50;;
72388;SDS011;60566;48.062;9.930;2022-09-09T08:07:11;7.97;;;1.90;;
72388;SDS011;60566;48.062;9.930;2022-09-09T08:09:36;4.38;;;1.73;;
72388;SDS011;60566;48.062;9.930;2022-09-09T08:12:05;3.33;;;1.60;;
72388;SDS011;60566;48.062;9.930;2022-09-09T08:14:32;3.58;;;1.80;;
72388;SDS011;60566;48.062;9.930;2022-09-09T08:16:57;5.45;;;1.60;;
72388;SDS011;60566;48.062;9.930;2022-09-09T08:19:23;8.13;;;1.77;;
72388;SDS011;60566;48.062;9.930;2022-09-09T08:21:48;5.50;;;1.60;;
72388;SDS011;60566;48.062;9.930;2022-09-09T08:24:14;4.88;;;1.88;;
72388;SDS011;60566;48.062;9.930;2022-09-09T08:26:40;4.90;;;1.42;;
72388;SDS011;60566;48.062;9.930;2022-09-09T08:29:07;4.38;;;1.52;;
72388;SDS011;60566;48.062;9.930;2022-09-09T08:31:35;5.32;;;1.27;;
72388;SDS011;60566;48.062;9.930;2022-09-09T08:34:03;7.88;;;1.65;;
72388;SDS011;60566;48.062;9.930;2022-09-09T08:36:31;4.57;;;1.65;;
72388;SDS011;60566;48.062;9.930;2022-09-09T08:38:59;5.32;;;1.48;;
72388;SDS011;60566;48.062;9.930;2022-09-09T08:41:35;4.68;;;1.92;;
72388;SDS011;60566;48.062;9.930;2022-09-09T08:44:10;5.28;;;2.03;;
72388;SDS011;60566;48.062;9.930;2022-09-09T08:46:44;4.78;;;1.35;;
72388;SDS011;60566;48.062;9.930;2022-09-09T08:49:19;3.17;;;1.95;;
72388;SDS011;60566;48.062;9.930;2022-09-09T08:51:51;3.42;;;1.50;;
72388;SDS011;60566;48.062;9.930;2022-09-09T08:54:18;6.32;;;2.13;;
72388;SDS011;60566;48.062;9.930;2022-09-09T08:56:44;8.63;;;2.10;;
72388;SDS011;60566;48.062;9.930;2022-09-09T08:59:17;3.10;;;1.40;;
72388;SDS011;60566;48.062;9.930;2022-09-09T09:04:44;7.00;;;1.38;;
72388;SDS011;60566;48.062;9.930;2022-09-09T09:07:18;5.80;;;1.73;;
72388;SDS011;60566;48.062;9.930;2022-09-09T09:09:57;4.05;;;1.40;;
72388;SDS011;60566;48.062;9.930;2022-09-09T09:12:29;4.75;;;1.63;;
72388;SDS011;60566;48.062;9.930;2022-09-09T09:15:05;5.05;;;1.38;;
72388;SDS011;60566;48.062;9.930;2022-09-09T09:17:36;3.15;;;1.58;;
72388;SDS011;60566;48.062;9.930;2022-09-09T09:20:05;8.75;;;1.90;;
72388;SDS011;60566;48.062;9.930;2022-09-09T09:22:37;6.07;;;1.90;;
72388;SDS011;60566;48.062;9.930;2022-09-09T09:25:09;7.82;;;2.10;;
72388;SDS011;60566;48.062;9.930;2022-09-09T09:27:39;4.30;;;2.15;;
72388;SDS011;60566;48.062;9.930;2022-09-09T09:30:13;4.82;;;1.50;;
72388;SDS011;60566;48.062;9.930;2022-09-09T09:32:40;3.55;;;1.58;;
72388;SDS011;60566;48.062;9.930;2022-09-09T09:35:11;4.60;;;1.60;;
72388;SDS011;60566;48.062;9.930;2022-09-09T09:37:37;4.03;;;1.50;;
72388;SDS011;60566;48.062;9.930;2022-09-09T09:40:08;4.88;;;1.58;;
72388;SDS011;60566;48.062;9.930;2022-09-09T09:42:34;8.05;;;2.20;;
72388;SDS011;60566;48.062;9.930;2022-09-09T09:45:15;2.85;;;1.20;;
72388;SDS011;60566;48.062;9.930;2022-09-09T09:47:42;7.00;;;1.80;;
72388;SDS011;60566;48.062;9.930;2022-09-09T09:50:17;6.47;;;1.65;;
72388;SDS011;60566;48.062;9.930;2022-09-09T09:52:51;5.30;;;1.75;;
72388;SDS011;60566;48.062;9.930;2022-09-09T09:55:20;6.60;;;1.58;;
72388;SDS011;60566;48.062;9.930;2022-09-09T09:57:46;8.52;;;1.38;;
72388;SDS011;60566;48.062;9.930;2022-09-09T10:00:13;3.28;;;1.77;;
72388;SDS011;60566;48.062;9.930;2022-09-09T10:02:40;5.45;;;1.80;;
72388;SDS011;60566;48.062;9.930;2022-09-09T10:05:12;5.88;;;1.48;;
72388;SDS011;60566;48.062;9.930;2022-09-09T10:07:40;9.00;;;1.90;;
72388;SDS011;60566;48.062;9.930;2022-09-09T10:10:07;3.90;;;1.50;;
72388;SDS011;60566;48.062;9.930;2022-09-09T10:12:37;5.55;;;2.00;;
72388;SDS011;60566;48.062;9.930;2022-09-09T10:15:15;3.58;;;1.40;;
72388;SDS011;60566;48.062;9.930;2022-09-09T10:17:54;4.60;;;1.67;;
72388;SDS011;60566;48.062;9.930;2022-09-09T10:20:28;5.35;;;1.65;;
72388;SDS011;60566;48.062;9.930;2022-09-09T10:25:31;4.55;;;1.83;;
72388;SDS011;60566;48.062;9.930;2022-09-09T10:28:19;5.57;;;1.70;;
72388;SDS011;60566;48.062;9.930;2022-09-09T10:31:10;3.47;;;1.60;;
72388;SDS011;60566;48.062;9.930;2022-09-09T10:33:44;5.63;;;1.50;;
72388;SDS011;60566;48.062;9.930;2022-09-09T10:36:16;6.32;;;1.63;;
72388;SDS011;60566;48.062;9.930;2022-09-09T10:38:46;5.47;;;1.60;;
72388;SDS011;60566;48.062;9.930;2022-09-09T10:41:15;5.13;;;1.83;;
72388;SDS011;60566;48.062;9.930;2022-09-09T10:43:59;6.28;;;1.75;;
72388;SDS011;60566;48.062;9.930;2022-09-09T10:46:58;3.92;;;1.58;;
72388;SDS011;60566;48.062;9.930;2022-09-09T10:49:37;4.70;;;1.55;;
72388;SDS011;60566;48.062;9.930;2022-09-09T10:52:17;5.85;;;1.70;;
72388;SDS011;60566;48.062;9.930;2022-09-09T10:54:52;7.65;;;1.60;;
72388;SDS011;60566;48.062;9.930;2022-09-09T10:57:25;5.50;;;2.03;;
72388;SDS011;60566;48.062;9.930;2022-09-09T10:59:53;3.53;;;1.20;;
72388;SDS011;60566;48.062;9.930;2022-09-09T11:02:24;4.88;;;1.30;;
72388;SDS011;60566;48.062;9.930;2022-09-09T11:04:53;5.10;;;1.27;;
72388;SDS011;60566;48.062;9.930;2022-09-09T11:07:23;4.13;;;1.33;;
72388;SDS011;60566;48.062;9.930;2022-09-09T11:09:55;3.08;;;1.50;;
72388;SDS011;60566;48.062;9.930;2022-09-09T11:12:24;3.97;;;1.40;;
72388;SDS011;60566;48.062;9.930;2022-09-09T11:14:51;3.78;;;1.33;;
72388;SDS011;60566;48.062;9.930;2022-09-09T11:17:20;6.30;;;1.92;;
72388;SDS011;60566;48.062;9.930;2022-09-09T11:19:47;4.80;;;1.25;;
72388;SDS011;60566;48.062;9.930;2022-09-09T11:22:15;4.82;;;1.35;;
72388;SDS011;60566;48.062;9.930;2022-09-09T11:24:47;4.22;;;1.75;;
72388;SDS011;60566;48.062;9.930;2022-09-09T11:27:17;5.95;;;1.85;;
72388;SDS011;60566;48.062;9.930;2022-09-09T11:30:00;4.43;;;1.40;;
72388;SDS011;60566;48.062;9.930;2022-09-09T11:32:38;5.50;;;1.52;;
72388;SDS011;60566;48.062;9.930;2022-09-09T11:35:17;4.28;;;1.63;;
72388;SDS011;60566;48.062;9.930;2022-09-09T11:37:55;6.45;;;1.50;;
72388;SDS011;60566;48.062;9.930;2022-09-09T11:40:29;3.90;;;1.40;;
72388;SDS011;60566;48.062;9.930;2022-09-09T11:43:04;4.80;;;1.77;;
72388;SDS011;60566;48.062;9.930;2022-09-09T11:45:31;4.40;;;1.48;;
72388;SDS011;60566;48.062;9.930;2022-09-09T11:47:58;3.63;;;1.30;;
72388;SDS011;60566;48.062;9.930;2022-09-09T11:50:28;3.47;;;1.40;;
72388;SDS011;60566;48.062;9.930;2022-09-09T11:55:47;5.47;;;1.40;;
72388;SDS011;60566;48.062;9.930;2022-09-09T11:58:16;5.13;;;1.40;;
72388;SDS011;60566;48.062;9.930;2022-09-09T12:00:43;2.78;;;1.30;;
72388;SDS011;60566;48.062;9.930;2022-09-09T12:03:28;3.95;;;1.38;;
72388;SDS011;60566;48.062;9.930;2022-09-09T12:06:14;2.80;;;1.35;;
72388;SDS011;60566;48.062;9.930;2022-09-09T12:08:45;4.53;;;1.58;;
72388;SDS011;60566;48.062;9.930;2022-09-09T12:11:11;3.30;;;1.20;;
72388;SDS011;60566;48.062;9.930;2022-09-09T12:13:38;5.30;;;1.42;;
72388;SDS011;60566;48.062;9.930;2022-09-09T12:16:06;5.15;;;1.60;;
72388;SDS011;60566;48.062;9.930;2022-09-09T12:19:03;3.85;;;1.50;;
72388;SDS011;60566;48.062;9.930;2022-09-09T12:21:31;4.93;;;1.40;;
72388;SDS011;60566;48.062;9.930;2022-09-09T12:23:59;3.50;;;1.50;;
72388;SDS011;60566;48.062;9.930;2022-09-09T12:26:28;4.97;;;1.83;;
72388;SDS011;60566;48.062;9.930;2022-09-09T12:29:00;3.80;;;1.65;;
72388;SDS011;60566;48.062;9.930;2022-09-09T12:31:32;7.28;;;1.48;;
72388;SDS011;60566;48.062;9.930;2022-09-09T12:34:04;2.90;;;1.50;;
72388;SDS011;60566;48.062;9.930;2022-09-09T12:36:38;2.78;;;1.30;;
72388;SDS011;60566;48.062;9.930;2022-09-09T12:39:16;4.70;;;1.45;;
72388;SDS011;60566;48.062;9.930;2022-09-09T12:41:50;2.92;;;1.25;;
72388;SDS011;60566;48.062;9.930;2022-09-09T12:44:16;4.25;;;1.60;;
72388;SDS011;60566;48.062;9.930;2022-09-09T12:46:43;5.35;;;1.63;;
72388;SDS011;60566;48.062;9.930;2022-09-09T12:49:21;5.05;;;2.25;;
72388;SDS011;60566;48.062;9.930;2022-09-09T12:51:51;5.38;;;1.70;;
72388;SDS011;60566;48.062;9.930;2022-09-09T12:54:17;2.67;;;1.60;;
72388;SDS011;60566;48.062;9.930;2022-09-09T12:56:44;3.20;;;1.50;;
72388;SDS011;60566;48.062;9.930;2022-09-09T13:01:44;6.65;;;1.80;;
72388;SDS011;60566;48.062;9.930;2022-09-09T13:04:16;4.88;;;1.88;;
72388;SDS011;60566;48.062;9.930;2022-09-09T13:06:44;5.57;;;1.30;;
72388;SDS011;60566;48.062;9.930;2022-09-09T13:09:10;3.65;;;1.98;;
72388;SDS011;60566;48.062;9.930;2022-09-09T13:11:36;5.40;;;1.33;;
72388;SDS011;60566;48.062;9.930;2022-09-09T13:14:03;6.45;;;1.70;;
72388;SDS011;60566;48.062;9.930;2022-09-09T13:16:29;4.38;;;1.42;;
72388;SDS011;60566;48.062;9.930;2022-09-09T13:18:57;4.22;;;1.20;;
72388;SDS011;60566;48.062;9.930;2022-09-09T13:21:30;4.20;;;1.35;;
72388;SDS011;60566;48.062;9.930;2022-09-09T13:24:04;4.72;;;1.65;;
72388;SDS011;60566;48.062;9.930;2022-09-09T13:26:30;6.60;;;1.50;;
72388;SDS011;60566;48.062;9.930;2022-09-09T13:29:07;4.60;;;1.50;;
72388;SDS011;60566;48.062;9.930;2022-09-09T13:31:35;6.60;;;1.65;;
72388;SDS011;60566;48.062;9.930;2022-09-09T13:34:11;3.40;;;1.50;;
72388;SDS011;60566;48.062;9.930;2022-09-09T13:36:37;3.47;;;1.40;;
72388;SDS011;60566;48.062;9.930;2022-09-09T13:39:03;2.85;;;1.20;;
72388;SDS011;60566;48.062;9.930;2022-09-09T13:41:29;2.40;;;1.10;;
72388;SDS011;60566;48.062;9.930;2022-09-09T13:43:56;3.80;;;1.20;;
72388;SDS011;60566;48.062;9.930;2022-09-09T13:46:24;3.25;;;1.20;;
72388;SDS011;60566;48.062;9.930;2022-09-09T13:48:55;3.33;;;1.30;;
72388;SDS011;60566;48.062;9.930;2022-09-09T13:51:28;3.45;;;1.17;;
72388;SDS011;60566;48.062;9.930;2022-09-09T13:53:57;2.80;;;1.05;;
72388;SDS011;60566;48.062;9.930;2022-09-09T13:56:23;3.65;;;1.40;;
72388;SDS011;60566;48.062;9.930;2022-09-09T13:58:48;3.45;;;1.10;;
72388;SDS011;60566;48.062;9.930;2022-09-09T14:01:14;4.05;;;1.20;;
72388;SDS011;60566;48.062;9.930;2022-09-09T14:03:39;3.28;;;1.20;;
72388;SDS011;60566;48.062;9.930;2022-09-09T14:06:05;4.90;;;1.30;;
72388;SDS011;60566;48.062;9.930;2022-09-09T14:08:31;3.42;;;1.27;;
72388;SDS011;60566;48.062;9.930;2022-09-09T14:10:57;5.45;;;1.50;;
72388;SDS011;60566;48.062;9.930;2022-09-09T14:13:23;3.42;;;1.40;;
72388;SDS011;60566;48.062;9.930;2022-09-09T14:15:49;5.45;;;1.30;;
72388;SDS011;60566;48.062;9.930;2022-09-09T14:18:14;4.28;;;1.10;;
72388;SDS011;60566;48.062;9.930;2022-09-09T14:20:40;3.53;;;1.40;;
72388;SDS011;60566;48.062;9.930;2022-09-09T14:23:05;4.72;;;1.35;;
72388;SDS011;60566;48.062;9.930;2022-09-09T14:25:32;7.85;;;1.42;;
72388;SDS011;60566;48.062;9.930;2022-09-09T14:27:57;2.45;;;1.17;;
72388;SDS011;60566;48.062;9.930;2022-09-09T14:30:22;4.00;;;1.50;;
72388;SDS011;60566;48.062;9.930;2022-09-09T14:32:48;3.17;;;1.38;;
72388;SDS011;60566;48.062;9.930;2022-09-09T14:35:13;3.35;;;1.23;;
72388;SDS011;60566;48.062;9.930;2022-09-09T14:37:39;4.45;;;1.27;;
72388;SDS011;60566;48.062;9.930;2022-09-09T14:40:05;5.10;;;1.45;;
72388;SDS011;60566;48.062;9.930;2022-09-09T14:42:32;7.40;;;1.67;;
72388;SDS011;60566;48.062;9.930;2022-09-09T14:44:57;4.43;;;1.30;;
72388;SDS011;60566;48.062;9.930;2022-09-09T14:47:23;3.95;;;1.50;;
72388;SDS011;60566;48.062;9.930;2022-09-09T14:49:48;2.60;;;1.10;;
72388;SDS011;60566;48.062;9.930;2022-09-09T14:52:13;4.80;;;1.50;;
72388;SDS011;60566;48.062;9.930;2022-09-09T14:54:39;3.88;;;1.48;;
72388;SDS011;60566;48.062;9.930;2022-09-09T14:57:05;4.25;;;1.38;;
72388;SDS011;60566;48.062;9.930;2022-09-09T14:59:31;3.65;;;1.63;;
72388;SDS011;60566;48.062;9.930;2022-09-09T15:01:57;2.63;;;1.20;;
72388;SDS011;60566;48.062;9.930;2022-09-09T15:04:22;3.08;;;1.05;;
72388;SDS011;60566;48.062;9.930;2022-09-09T15:06:47;3.42;;;1.10;;
72388;SDS011;60566;48.062;9.930;2022-09-09T15:11:41;3.23;;;1.53;;